Tiempo atmosférico en la estación meteorológica de Valencia De Don Juan, León (788 m.)



Fecha
DESCASC
Temp. máxima en grados centígrados (hora)
DESCASC
Temp. mínima en grados centígrados (hora)
DESCASC
Temp. media en grados centígrados
DESCASC
Racha de viento máxima en m/sg (hora)
DESCASC
Velocidad máxima media en intervalos de 10 minutos(hora)
DESCASC
Precipitaciones diarias en mm
DESCASC
Precipitaciones de 00:00 a 06:00 en mm
DESCASC
Precipitaciones de 06:00 a 12:00 en mm
DESCASC
Precipitaciones de 12:00 a 18:00 en mm
DESCASC
Precipitaciones de 18:00 a 24:00 en mm
DESCASC
02-08-2020 26.7 (19:20) 13.9 (05:40) 20.3 10.28 (22:10) 7.78 (22:00) 0 0 0 0 0
01-08-2020 32 (19:00) 17.6 (07:10) 24.8 12.5 (21:50) 8.61 (21:50) 0 0 0 0 0
31-07-2020 34.5 (18:20) 15.9 (07:10) 25.2 11.39 (18:30) 6.11 (18:10) 0 0 0 0 0
30-07-2020 36.3 (17:00) 17.1 (00:00) 26.7 17.5 (17:20) 9.17 (18:10) 0 0 0 0 0
29-07-2020 33.8 (18:20) 14.3 (00:00) 24 12.78 (23:59) 8.06 (23:59) 0 0 0 0 0
28-07-2020 32.5 (18:30) 16.8 (00:00) 24.6 14.17 (22:30) 10 (22:30) 0 0 0 0 0
27-07-2020 35.9 (18:10) 14.1 (00:00) 25 8.33 (18:20) 5.83 (21:30) 0 0 0 0 0
26-07-2020 32.2 (19:20) 14.3 (00:00) 23.3 6.39 (14:40) 4.17 (19:40) 0 0 0 0 0
25-07-2020 32 (18:30) 13 (00:00) 22.5 10.56 (19:40) 6.94 (19:30) 0 0 0 0 0
24-07-2020 29.8 (19:10) 12.2 (00:00) 21 10 (22:50) 6.39 (22:50) 0 0 0 0 0
23-07-2020 31.5 (16:50) 15.5 (00:00) 23.5 10.83 (19:30) 7.22 (19:10) 0 0 0 0 0
22-07-2020 31.2 (16:50) 16.2 (00:00) 23.7 9.72 (17:10) 7.5 (17:20) 0 0 0 0 0
21-07-2020 31.4 (15:50) 14.7 (00:00) 23 15 (21:10) 10.28 (21:50) 0 0 0 0 0
20-07-2020 32.6 (19:20) 15.7 (00:00) 24.1 12.78 (23:20) 9.44 (23:30) 0 0 0 0 0
19-07-2020 33.7 (18:30) 13.6 (00:00) 23.7 8.61 (23:00) 6.11 (23:00) 0 0 0 0 0
18-07-2020 31.4 (18:50) 12.4 (00:00) 21.9 11.39 (00:20) 8.06 (00:10) 0 0 0 0 0
17-07-2020 30.6 (18:20) 11.4 (00:00) 21 12.22 (21:00) 8.33 (21:40) 0 0 0 0 0
16-07-2020 29.3 (18:40) 11.6 (00:00) 20.4 10.83 (22:00) 8.06 (22:00) 0 0 0 0 0
15-07-2020 28.1 (18:30) 10.2 (00:00) 19.2 11.39 (22:20) 8.61 (22:40) 0 0 0 0 0
14-07-2020 27.4 (17:30) 12.6 (00:00) 20 12.22 (20:10) 9.44 (20:10) 0 0 0 0 0
13-07-2020 -- (--) -- (--) -- -- (--) -- (--) -- -- -- -- 0
12-07-2020 -- (--) -- (--) -- -- (--) -- (--) -- -- -- -- --
11-07-2020 -- (--) -- (--) -- -- (--) -- (--) -- -- -- -- --
10-07-2020 -- (--) -- (--) -- -- (--) -- (--) -- -- -- -- --
09-07-2020 -- (--) -- (--) -- -- (--) -- (--) -- -- -- -- --
08-07-2020 -- (--) -- (--) -- -- (--) -- (--) -- 0 0 0 --

Gráficas

Temp. máximas Temp. mínimas Temp. medias Precipitaciones Rachas de viento máximas Velocidades máximas media en intervalos de 10 minutos

Datos horarios

Fecha y hora oficial Temperatura (ºC) Velocidad del viento (km/h) Dirección del viento Racha (km/h) Dirección de racha Precipitación (mm) Presión (hPa) Tendencia (hPa) Humedad (%)
2020-08-06 23:00:00 27.4 0 Calma 13 Sudoeste 0 -- -- 34
2020-08-06 22:00:00 31 0 Calma 5 Norte 0 -- -- 25
2020-08-06 21:00:00 33 0 Calma 8 Noroeste 0 -- -- 23
2020-08-06 20:00:00 34.3 4 Noroeste 18 Oeste 0 -- -- 25
2020-08-06 19:00:00 35.3 13 Sudoeste 24 Sudoeste 0 -- -- 22
2020-08-06 18:00:00 35.8 13 Sur 27 Sudoeste 0 -- -- 19
2020-08-06 17:00:00 35.2 16 Sudoeste 28 Sudoeste 0 -- -- 20
2020-08-06 16:00:00 34.6 14 Oeste 26 Sudoeste 0 -- -- 21
2020-08-06 15:00:00 33.8 3 Sudeste 20 Sudeste 0 -- -- 25
2020-08-06 14:00:00 31.6 8 Nordeste 17 Norte 0 -- -- 31
2020-08-06 13:00:00 30 7 Norte 17 Noroeste 0 -- -- 30
2020-08-06 12:00:00 27.8 8 Nordeste 14 Nordeste 0 -- -- 28
2020-08-06 11:00:00 24.8 8 Norte 13 Norte 0 -- -- 41
2020-08-06 10:00:00 21 8 Norte 11 Norte 0 -- -- 55
2020-08-06 09:00:00 17.1 6 Norte 9 Norte 0 -- -- 77
2020-08-06 08:00:00 14.6 6 Norte 11 Norte 0 -- -- 84
2020-08-06 07:00:00 14.4 8 Noroeste 13 Norte 0 -- -- 83
2020-08-06 06:00:00 14.6 10 Norte 13 Norte 0 -- -- 83
2020-08-06 05:00:00 15.7 10 Norte 15 Norte 0 -- -- 78
2020-08-06 04:00:00 18.4 13 Nordeste 19 Nordeste 0 -- -- 60
2020-08-06 03:00:00 18.7 9 Nordeste 13 Norte 0 -- -- 58
2020-08-06 02:00:00 22 9 Nordeste 32 Este 0 -- -- 49
2020-08-06 01:00:00 23.2 21 Este 36 Este 0 -- -- 42
2020-08-06 00:00:00 25.3 22 Este 31 Este 0 -- -- 34
2020-08-05 23:00:00 26.5 14 Este 16 Este 0 -- -- 30
2020-08-05 22:00:00 27.8 3 Sur 9 Sudeste 0 -- -- 32
2020-08-05 21:00:00 31.2 0 Calma 12 Oeste 0 -- -- 27
2020-08-05 20:00:00 31.4 6 Sur 15 Noroeste 0 -- -- 27
2020-08-05 19:00:00 32 5 Noroeste 15 Norte 0 -- -- 27
2020-08-05 18:00:00 31 7 Norte 17 Oeste 0 -- -- 29
2020-08-05 17:00:00 31 7 Oeste 17 Noroeste 0 -- -- 29
2020-08-05 16:00:00 29.9 7 Noroeste 18 Oeste 0 -- -- 31
2020-08-05 15:00:00 28.7 11 Oeste 30 Oeste 0 -- -- 33
2020-08-05 14:00:00 27.1 8 Sudoeste 19 Sudoeste 0 -- -- 39
2020-08-05 13:00:00 25.3 8 Oeste 15 Oeste 0 -- -- 42
2020-08-05 12:00:00 23.4 3 Oeste 8 Sudoeste 0 -- -- 49
2020-08-05 11:00:00 20.9 0 Calma 8 Norte 0 -- -- 57
2020-08-05 10:00:00 19 4 Norte 9 Norte 0 -- -- 66
2020-08-05 09:00:00 16.7 0 Calma 7 Nordeste 0 -- -- 74
2020-08-05 08:00:00 13.5 5 Nordeste 6 Nordeste 0 -- -- 83
2020-08-05 07:00:00 13.6 0 Calma 5 Nordeste 0 -- -- 82
2020-08-05 06:00:00 13.2 6 Nordeste 8 Norte 0 -- -- 84
2020-08-05 05:00:00 14.2 5 Norte 10 Norte 0 -- -- 80
2020-08-05 04:00:00 15.3 4 Norte 8 Norte 0 -- -- 76
2020-08-05 03:00:00 15.7 5 Norte 16 Nordeste 0 -- -- 75
2020-08-05 02:00:00 18 9 Nordeste 26 Este 0 -- -- 66
2020-08-05 01:00:00 19.4 18 Este 34 Este 0 -- -- 57
2020-08-05 00:00:00 20.7 23 Este 33 Este 0 -- -- 45
2020-08-04 23:00:00 21.2 17 Sudeste 21 Sudeste 0 -- -- 40
2020-08-04 22:00:00 23 13 Sudeste 15 Sudeste 0 -- -- 37
2020-08-04 21:00:00 26.6 4 Sur 11 Sudoeste 0 -- -- 33
2020-08-04 20:00:00 27.6 5 Oeste 15 Sudoeste 0 -- -- 33
2020-08-04 19:00:00 27.5 6 Oeste 16 Oeste 0 -- -- 34
2020-08-04 18:00:00 26.9 6 Noroeste 19 Oeste 0 -- -- 33
2020-08-04 17:00:00 26.3 9 Noroeste 21 Oeste 0 -- -- 38
2020-08-04 16:00:00 25.6 7 Sudoeste 19 Oeste 0 -- -- 40
2020-08-04 15:00:00 25.1 12 Sudoeste 21 Sur 0 -- -- 38
2020-08-04 14:00:00 23.5 8 Norte 15 Sudeste 0 -- -- 47
2020-08-04 13:00:00 22.6 8 Sur 14 Sur 0 -- -- 46
2020-08-04 12:00:00 20.3 5 Norte 15 Nordeste 0 -- -- 53
2020-08-04 11:00:00 18.6 6 Nordeste 17 Norte 0 -- -- 61
2020-08-04 10:00:00 16.3 8 Nordeste 15 Nordeste 0 -- -- 67
2020-08-04 09:00:00 14.5 7 Norte 10 Norte 0 -- -- 78
2020-08-04 08:00:00 12.6 5 Norte 10 Nordeste 0 -- -- 83
2020-08-04 07:00:00 12.5 5 Norte 28 Sudeste 0 -- -- 77
2020-08-04 06:00:00 13.3 21 Sudeste 29 Este 0 -- -- 72
2020-08-04 05:00:00 13.6 19 Sudeste 29 Sudeste 0 -- -- 69
2020-08-04 04:00:00 14.3 19 Sudeste 28 Sudeste 0 -- -- 69
2020-08-04 03:00:00 15.1 19 Este 30 Sudeste 0 -- -- 68
2020-08-04 02:00:00 16.4 20 Este 27 Este 0 -- -- 66
2020-08-04 01:00:00 17.5 17 Este 23 Este 0 -- -- 65
2020-08-04 00:00:00 18.5 13 Este 24 Este 0 -- -- 62
2020-08-03 23:00:00 20.5 21 Este 33 Nordeste 0 -- -- 54
2020-08-03 22:00:00 22.1 17 Norte 29 Nordeste 0 -- -- 47
2020-08-03 21:00:00 26.2 5 Noroeste 12 Noroeste 0 -- -- 38
2020-08-03 20:00:00 26.4 5 Este 15 Nordeste 0 -- -- 40
2020-08-03 19:00:00 26.2 8 Nordeste 17 Nordeste 0 -- -- 36
2020-08-03 18:00:00 27.2 4 Sudeste 16 Sur 0 -- -- 36
2020-08-03 17:00:00 25.9 7 Este 18 Norte 0 -- -- 35
2020-08-03 16:00:00 25.2 7 Nordeste 14 Noroeste 0 -- -- 38
2020-08-03 15:00:00 24.2 8 Oeste 23 Oeste 0 -- -- 41
2020-08-03 14:00:00 22.9 3 Este 15 Oeste 0 -- -- 44
2020-08-03 13:00:00 21.5 4 Oeste 18 Sudoeste 0 -- -- 46
2020-08-03 12:00:00 20.5 4 Sudoeste 10 Norte 0 -- -- 53
2020-08-03 11:00:00 18.7 4 Norte 9 Norte 0 -- -- 60
2020-08-03 10:00:00 16.9 2 Este 9 Nordeste 0 -- -- 66
2020-08-03 09:00:00 15.9 3 Norte 6 Norte 0 -- -- 70
2020-08-03 08:00:00 13.4 4 Nordeste 9 Este 0 -- -- 79
2020-08-03 07:00:00 12.5 5 Este 6 Este 0 -- -- 77
2020-08-03 06:00:00 13.4 0 Calma 4 Nordeste 0 -- -- 72
2020-08-03 05:00:00 13.7 3 Nordeste 5 Este 0 -- -- 71
2020-08-03 04:00:00 14.3 4 Sudeste 12 Este 0 -- -- 70
2020-08-03 03:00:00 15 10 Este 16 Este 0 -- -- 66
2020-08-03 02:00:00 16 14 Este 31 Este 0 -- -- 62
2020-08-03 01:00:00 16.6 24 Este 36 Este 0 -- -- 63
2020-08-03 00:00:00 17.3 23 Este 35 Este 0 -- -- 64
2020-08-02 23:00:00 18.9 26 Este 37 Este 0 -- -- 59
2020-08-02 22:00:00 20.7 28 Este 36 Sudeste 0 -- -- 52
2020-08-02 21:00:00 22.9 24 Sudeste 35 Sudeste 0 -- -- 46
2020-08-02 20:00:00 26.1 2 Norte 11 Norte 0 -- -- 38
2020-08-02 19:00:00 26.3 9 Norte 16 Noroeste 0 -- -- 35
2020-08-02 18:00:00 25.9 9 Noroeste 22 Noroeste 0 -- -- 37
2020-08-02 17:00:00 25.3 15 Noroeste 22 Noroeste 0 -- -- 42
2020-08-02 16:00:00 25.1 12 Noroeste 22 Norte 0 -- -- 40
2020-08-02 15:00:00 24.7 7 Norte 21 Nordeste 0 -- -- 42
2020-08-02 14:00:00 23.2 7 Nordeste 20 Norte 0 -- -- 48
2020-08-02 13:00:00 22.8 9 Norte 22 Nordeste 0 -- -- 52
2020-08-02 12:00:00 21.7 6 Este 22 Norte 0 -- -- 56
2020-08-02 11:00:00 20 10 Nordeste 19 Nordeste 0 -- -- 62
2020-08-02 10:00:00 16.9 5 Norte 14 Norte 0 -- -- 76
2020-08-02 09:00:00 15.5 8 Norte 15 Norte 0 -- -- 80
2020-08-02 08:00:00 14.6 8 Norte 12 Norte 0 -- -- 85
2020-08-02 07:00:00 14.7 3 Norte 12 Nordeste 0 -- -- 84
2020-08-02 06:00:00 13.9 6 Nordeste 9 Nordeste 0 -- -- 85
2020-08-02 05:00:00 14.1 5 Nordeste 10 Nordeste 0 -- -- 82
2020-08-02 04:00:00 14.8 7 Norte 12 Nordeste -- -- -- 82
2020-08-02 03:00:00 15.5 11 Nordeste 14 Nordeste 0 -- -- 80
2020-08-02 02:00:00 16.2 8 Nordeste 15 Nordeste 0 -- -- 77
2020-08-02 01:00:00 17.6 10 Nordeste 17 Nordeste 0 -- -- 73
2020-08-02 00:00:00 19.2 14 Nordeste 29 Este 0 -- -- 67
2020-08-01 23:00:00 20.9 23 Este 37 Nordeste 0 -- -- 60
2020-08-01 22:00:00 22.4 27 Este 45 Nordeste 0 -- -- 56
2020-08-01 21:00:00 26.7 21 Noroeste 35 Oeste 0 -- -- 31
2020-08-01 20:00:00 29 22 Noroeste 43 Sudoeste 0 -- -- 32
2020-08-01 19:00:00 32 7 Sur 20 Sur 0 -- -- 27
2020-08-01 18:00:00 31.4 12 Sur 24 Sur 0 -- -- 28
2020-08-01 17:00:00 30.7 8 Sur 20 Sur 0 -- -- 31
2020-08-01 16:00:00 29.8 6 Oeste 20 Oeste 0 -- -- 32
2020-08-01 15:00:00 28.6 11 Oeste 21 Sudoeste 0 -- -- 36
2020-08-01 14:00:00 27.2 10 Oeste 22 Oeste 0 -- -- 41
2020-08-01 13:00:00 26.3 11 Oeste 24 Sudoeste 0 -- -- 41
2020-08-01 12:00:00 24.8 5 Sur 15 Sur 0 -- -- 44
2020-08-01 11:00:00 22.8 7 Sudoeste 16 Sudoeste 0 -- -- 50
2020-08-01 10:00:00 21.2 9 Sudoeste 14 Sudoeste 0 -- -- 59
2020-08-01 09:00:00 19.3 5 Sur 7 Sur 0 -- -- 64
2020-08-01 08:00:00 18 0 Calma 9 Norte 0 -- -- 65
2020-08-01 07:00:00 17.7 4 Noroeste 10 Norte 0 -- -- 66
2020-08-01 06:00:00 18.6 7 Noroeste 12 Noroeste 0 -- -- 63
2020-08-01 05:00:00 19.3 3 Noroeste 8 Noroeste 0 -- -- 62
2020-08-01 04:00:00 19.2 8 Norte 12 Norte 0 -- -- 66
2020-08-01 03:00:00 19.3 8 Nordeste 14 Norte 0 -- -- 69
2020-08-01 02:00:00 19 11 Nordeste 12 Nordeste 0 -- -- 71
2020-08-01 01:00:00 19.6 10 Norte 15 Norte 0 -- -- 66
2020-08-01 00:00:00 22.4 11 Norte 16 Noroeste 0 -- -- 44
2020-07-31 23:00:00 24.4 5 Noroeste 14 Noroeste 0 -- -- 39
2020-07-31 22:00:00 26.5 12 Oeste 20 Oeste 0 -- -- 34
2020-07-31 21:00:00 30.1 15 Sudoeste 24 Sudoeste 0 -- -- 23
2020-07-31 20:00:00 32.8 19 Sudoeste 26 Sudoeste 0 -- -- 19
2020-07-31 19:00:00 33.9 18 Sudoeste 41 Sudoeste 0 -- -- 16
2020-07-31 18:00:00 34.4 18 Sudoeste 33 Sur 0 -- -- 16
2020-07-31 17:00:00 33.7 17 Sur 28 Sur 0 -- -- 22
2020-07-31 16:00:00 32.8 12 Sur 31 Sudoeste 0 -- -- 24
2020-07-31 15:00:00 31.9 19 Sur 31 Sur 0 -- -- 27
2020-07-31 14:00:00 30.2 9 Sur 17 Sur 0 -- -- 37
2020-07-31 13:00:00 28.8 6 Sudoeste 13 Oeste 0 -- -- 39
2020-07-31 12:00:00 27.2 5 Noroeste 8 Noroeste 0 -- -- 47
2020-07-31 11:00:00 24.8 0 Calma 10 Noroeste 0 -- -- 52
2020-07-31 10:00:00 21.8 0 Calma 5 Noroeste 0 -- -- 61
2020-07-31 09:00:00 19 0 Calma 7 Norte 0 -- -- 74
2020-07-31 08:00:00 16.3 6 Norte 9 Norte 0 -- -- 81
2020-07-31 07:00:00 16.3 3 Norte 10 Este 0 -- -- 77
2020-07-31 06:00:00 17 5 Este 7 Nordeste 0 -- -- 76
2020-07-31 05:00:00 17.9 4 Norte 9 Norte 0 -- -- 73
2020-07-31 04:00:00 18.1 7 Norte 19 Este 0 -- -- 75
2020-07-31 03:00:00 20 18 Este 21 Este 0 -- -- 63
2020-07-31 02:00:00 19.4 9 Nordeste 10 Este 0 -- -- 74
2020-07-31 01:00:00 21.4 5 Norte 15 Nordeste 0 -- -- 64
2020-07-31 00:00:00 22.5 13 Nordeste 21 Nordeste 0 -- -- 58
2020-07-30 23:00:00 23.4 12 Nordeste 28 Norte 0 -- -- 56
2020-07-30 22:00:00 24.6 22 Norte 38 Norte 0 -- -- 50
2020-07-30 21:00:00 25.7 25 Noroeste 45 Oeste 0 -- -- 45
2020-07-30 20:00:00 30.3 14 Oeste 35 Sudoeste 0 -- -- 32
2020-07-30 19:00:00 33.7 23 Sudoeste 57 Sur 0 -- -- 19
2020-07-30 18:00:00 31.9 27 Sur 63 Sur 0 -- -- 23
2020-07-30 17:00:00 36.3 24 Sudoeste 35 Sudoeste 0 -- -- 22
2020-07-30 16:00:00 35 10 Sudoeste 30 Sudoeste 0 -- -- 25
2020-07-30 15:00:00 34.1 20 Sudoeste 31 Sudoeste 0 -- -- 28
2020-07-30 14:00:00 33.5 11 Sudoeste 26 Sur 0 -- -- 33
2020-07-30 13:00:00 31.5 10 Sur 21 Este 0 -- -- 36
2020-07-30 12:00:00 29.3 10 Sudeste 22 Este 0 -- -- 40
2020-07-30 11:00:00 27.6 15 Sudeste 24 Este 0 -- -- 45
2020-07-30 10:00:00 25.4 17 Este 25 Este 0 -- -- 51
2020-07-30 09:00:00 22.3 12 Este 20 Este 0 -- -- 60
2020-07-30 08:00:00 17.6 7 Noroeste 10 Nordeste 0 -- -- 80
2020-07-30 07:00:00 17.5 7 Norte 11 Norte 0 -- -- 81
2020-07-30 06:00:00 18.3 6 Norte 10 Norte 0 -- -- 79
2020-07-30 05:00:00 18.9 9 Noroeste 14 Norte 0 -- -- 78
2020-07-30 04:00:00 18.9 11 Norte 19 Nordeste 0 -- -- 80
2020-07-30 03:00:00 21.4 16 Nordeste 21 Norte 0 -- -- 67
2020-07-30 02:00:00 23.9 13 Nordeste 35 Este 0 -- -- 54
2020-07-30 01:00:00 25.7 26 Este 42 Este 0 -- -- 46
2020-07-30 00:00:00 26.9 29 Este 46 Este 0 -- -- 41
2020-07-29 23:00:00 26.4 16 Este 20 Este 0 -- -- 37
2020-07-29 22:00:00 29.3 4 Nordeste 5 Nordeste 0 -- -- 30
2020-07-29 21:00:00 31.8 4 Noroeste 12 Noroeste 0 -- -- 31
2020-07-29 20:00:00 32.4 7 Noroeste 15 Oeste 0 -- -- 32
2020-07-29 19:00:00 33 12 Oeste 23 Sudoeste 0 -- -- 30
2020-07-29 18:00:00 33.4 14 Oeste 30 Sudoeste 0 -- -- 25
2020-07-29 17:00:00 32.9 15 Sudoeste 23 Oeste 0 -- -- 31
2020-07-29 16:00:00 31.8 10 Oeste 18 Sudoeste 0 -- -- 37
2020-07-29 15:00:00 30.7 3 Norte 13 Este 0 -- -- 42
2020-07-29 14:00:00 28.7 4 Este 13 Norte 0 -- -- 43
2020-07-29 13:00:00 26.7 5 Sudeste 15 Nordeste 0 -- -- 47
2020-07-29 12:00:00 24.2 6 Nordeste 15 Este 0 -- -- 56
2020-07-29 11:00:00 21.8 10 Este 22 Nordeste 0 -- -- 61
2020-07-29 10:00:00 19.7 17 Nordeste 26 Este 0 -- -- 67
2020-07-29 09:00:00 17.3 15 Nordeste 24 Nordeste 0 -- -- 75
2020-07-29 08:00:00 15.3 10 Nordeste 14 Norte 0 -- -- 86
2020-07-29 07:00:00 15 4 Norte 6 Nordeste 0 -- -- 85
2020-07-29 06:00:00 15.1 5 Nordeste 7 Nordeste 0 -- -- 85
2020-07-29 05:00:00 16.1 2 Nordeste 9 Nordeste 0 -- -- 80
2020-07-29 04:00:00 16.3 8 Nordeste 17 Nordeste 0 -- -- 81
2020-07-29 03:00:00 16.8 11 Nordeste 24 Este 0 -- -- 79
2020-07-29 02:00:00 17.6 19 Nordeste 27 Nordeste 0 -- -- 76
2020-07-29 01:00:00 18.2 17 Nordeste 32 Este 0 -- -- 74
2020-07-29 00:00:00 19.2 23 Este 49 Este 0 -- -- 70
2020-07-28 23:00:00 20.8 30 Este 51 Este 0 -- -- 65
2020-07-28 22:00:00 23.8 34 Este 50 Este 0 -- -- 56
2020-07-28 21:00:00 27.1 31 Este 45 Este 0 -- -- 47
2020-07-28 20:00:00 29.4 21 Sudeste 32 Sudeste 0 -- -- 40
2020-07-28 19:00:00 30.9 13 Sudeste 26 Sudeste 0 -- -- 37
2020-07-28 18:00:00 31.8 8 Sudoeste 20 Sur 0 -- -- 33
2020-07-28 17:00:00 30.9 11 Sur 24 Sudeste 0 -- -- 36
2020-07-28 16:00:00 29.5 9 Este 22 Este 0 -- -- 40
2020-07-28 15:00:00 29.1 6 Este 15 Nordeste 0 -- -- 42
2020-07-28 14:00:00 27.7 9 Este 19 Nordeste 0 -- -- 46
2020-07-28 13:00:00 26.7 10 Este 22 Este 0 -- -- 48
2020-07-28 12:00:00 25.4 8 Nordeste 21 Este 0 -- -- 51
2020-07-28 11:00:00 23.3 13 Nordeste 22 Este 0 -- -- 54
2020-07-28 10:00:00 21.1 4 Noroeste 12 Norte 0 -- -- 64
2020-07-28 09:00:00 18.9 9 Norte 12 Norte 0 -- -- 74
2020-07-28 08:00:00 17.5 8 Este 13 Este 0 -- -- 73
2020-07-28 07:00:00 17 9 Nordeste 15 Este 0 -- -- 72
2020-07-28 06:00:00 17.4 6 Nordeste 13 Nordeste 0 -- -- 72
2020-07-28 05:00:00 18 8 Nordeste 12 Nordeste 0 -- -- 69
2020-07-28 04:00:00 19.5 3 Norte 5 Este 0 -- -- 61
2020-07-28 03:00:00 20.4 4 Nordeste 7 Norte 0 -- -- 57
2020-07-28 02:00:00 21.3 5 Norte 13 Sudeste 0 -- -- 56
2020-07-28 01:00:00 22.4 6 Nordeste 17 Este 0 -- -- 51
2020-07-28 00:00:00 22.8 14 Nordeste 24 Noroeste 0 -- -- 47
2020-07-27 23:00:00 26.1 16 Noroeste 27 Noroeste 0 -- -- 37
2020-07-27 22:00:00 27.8 16 Noroeste 28 Noroeste 0 -- -- 34
2020-07-27 21:00:00 30.5 17 Noroeste 27 Noroeste 0 -- -- 33
2020-07-27 20:00:00 33.4 13 Noroeste 26 Oeste 0 -- -- 29
2020-07-27 19:00:00 35.3 13 Oeste 30 Sudoeste 0 -- -- 25
2020-07-27 18:00:00 35.8 11 Sudoeste 19 Sur 0 -- -- 23
2020-07-27 17:00:00 35.1 14 Sur 24 Sur 0 -- -- 24
2020-07-27 16:00:00 33.9 12 Sur 26 Sudoeste 0 -- -- 30
2020-07-27 15:00:00 32.6 7 Oeste 19 Oeste 0 -- -- 32
2020-07-27 14:00:00 31.3 8 Oeste 15 Oeste 0 -- -- 32
2020-07-27 13:00:00 29.6 4 Noroeste 10 Noroeste 0 -- -- 38
2020-07-27 12:00:00 27.2 5 Norte 13 Norte 0 -- -- 47
2020-07-27 09:00:00 -- -- -- -- -- -- -- -- --
2020-07-27 08:00:00 15.1 8 Nordeste 10 Nordeste 0 -- -- 80
2020-07-27 07:00:00 14.2 8 Nordeste 12 Este 0 -- -- 82
2020-07-27 06:00:00 14.3 7 Norte 8 Norte 0 -- -- 85
2020-07-27 05:00:00 15.7 6 Norte 9 Norte 0 -- -- 80
2020-07-27 04:00:00 16.6 4 Nordeste 11 Norte 0 -- -- 77
2020-07-27 03:00:00 18.8 5 Nordeste 11 Nordeste 0 -- -- 62
2020-07-27 02:00:00 20.9 4 Norte 7 Noroeste 0 -- -- 55
2020-07-27 01:00:00 22.5 4 Noroeste 10 Noroeste 0 -- -- 53
2020-07-27 00:00:00 24.1 10 Sudoeste 17 Noroeste 0 -- -- 48
2020-07-26 23:00:00 25.6 7 Sur 16 Sudeste 0 -- -- 33
2020-07-26 22:00:00 28 14 Sudeste 19 Sudeste 0 -- -- 30
2020-07-26 21:00:00 31.4 10 Sur 20 Sur 0 -- -- 28
2020-07-26 20:00:00 32.1 10 Sur 23 Sudoeste 0 -- -- 25
2020-07-26 19:00:00 32 10 Sur 16 Sur 0 -- -- 25
2020-07-26 18:00:00 31.4 5 Sur 12 Sur 0 -- -- 28
2020-07-26 17:00:00 30.8 6 Oeste 14 Oeste 0 -- -- 28
2020-07-26 16:00:00 29.8 8 Oeste 22 Oeste 0 -- -- 33
2020-07-26 15:00:00 28.7 13 Oeste 23 Sudoeste 0 -- -- 31
2020-07-26 14:00:00 27.6 5 Noroeste 14 Sudoeste 0 -- -- 36
2020-07-26 13:00:00 25.9 3 Norte 14 Este 0 -- -- 43
2020-07-26 12:00:00 23.9 6 Sudeste 16 Este 0 -- -- 56
2020-07-26 11:00:00 22.1 8 Este 17 Sudeste 0 -- -- 56
2020-07-26 10:00:00 20.3 6 Sudeste 14 Sudeste 0 -- -- 65
2020-07-26 09:00:00 18.5 3 Norte 8 Este 0 -- -- 76
2020-07-26 08:00:00 15.2 6 Este 9 Este 0 -- -- 80
2020-07-26 07:00:00 14.4 5 Este 6 Este 0 -- -- 80
2020-07-26 06:00:00 15.4 0 Calma -- -- 0 -- -- 73
2020-07-26 05:00:00 16.7 0 Calma 13 Este 0 -- -- 72
2020-07-26 04:00:00 16.7 8 Este 15 Este 0 -- -- 68
2020-07-26 03:00:00 18 4 Nordeste 13 Este 0 -- -- 55
2020-07-26 02:00:00 18 6 Nordeste 15 Noroeste 0 -- -- 54
2020-07-26 01:00:00 19 12 Noroeste 17 Noroeste 0 -- -- 56
2020-07-26 00:00:00 20.3 9 Norte 19 Noroeste 0 -- -- 49
2020-07-25 23:00:00 22.3 14 Noroeste 24 Noroeste 0 -- -- 40
2020-07-25 22:00:00 24.5 14 Noroeste 31 Noroeste 0 -- -- 31
2020-07-25 21:00:00 27.6 18 Noroeste 35 Noroeste 0 -- -- 27
2020-07-25 20:00:00 29.5 22 Noroeste 38 Noroeste 0 -- -- 22
2020-07-25 19:00:00 31.1 14 Noroeste 20 Noroeste 0 -- -- 30
2020-07-25 18:00:00 31.9 9 Sur 20 Sudoeste 0 -- -- 25
2020-07-25 17:00:00 31 10 Sur 20 Sudoeste 0 -- -- 28
2020-07-25 16:00:00 30 10 Oeste 22 Sudoeste 0 -- -- 32
2020-07-25 15:00:00 28.2 10 Oeste 20 Oeste 0 -- -- 35
2020-07-25 14:00:00 27.7 10 Oeste 21 Oeste 0 -- -- 32
2020-07-25 13:00:00 26 5 Norte 14 Nordeste 0 -- -- 38
2020-07-25 12:00:00 24.2 7 Norte 15 Norte 0 -- -- 44
2020-07-25 11:00:00 21.9 9 Norte 18 Norte 0 -- -- 52
2020-07-25 10:00:00 18.2 13 Norte 19 Norte 0 -- -- 64
2020-07-25 09:00:00 15.8 12 Norte 17 Norte 0 -- -- 71
2020-07-25 08:00:00 13.5 12 Nordeste 15 Nordeste 0 -- -- 83
2020-07-25 07:00:00 13.3 9 Norte 14 Norte 0 -- -- 86
2020-07-25 06:00:00 14.6 8 Norte 18 Nordeste 0 -- -- 77
2020-07-25 05:00:00 15.2 12 Nordeste 18 Nordeste 0 -- -- 74
2020-07-25 04:00:00 15.9 9 Nordeste 16 Nordeste 0 -- -- 75
2020-07-25 03:00:00 16.7 7 Nordeste 16 Este 0 -- -- 72
2020-07-25 02:00:00 17.3 10 Este 15 Este 0 -- -- 69
2020-07-25 01:00:00 18.8 12 Este 15 Nordeste 0 -- -- 61
2020-07-25 00:00:00 20.4 11 Nordeste 32 Este 0 -- -- 58
2020-07-24 23:00:00 22.3 18 Nordeste 36 Este 0 -- -- 50
2020-07-24 22:00:00 25.9 7 Norte 9 Nordeste 0 -- -- 37
2020-07-24 21:00:00 29.3 6 Noroeste 10 Norte 0 -- -- 30
2020-07-24 20:00:00 29.1 4 Nordeste 9 Nordeste 0 -- -- 33
2020-07-24 19:00:00 29.4 2 Norte 15 Nordeste 0 -- -- 24
2020-07-24 18:00:00 28.8 6 Nordeste 19 Noroeste 0 -- -- 25
2020-07-24 17:00:00 29.2 8 Sudoeste 18 Oeste 0 -- -- 26
2020-07-24 16:00:00 28.2 8 Noroeste 20 Oeste 0 -- -- 28
2020-07-24 15:00:00 27.2 7 Sudoeste 14 Noroeste 0 -- -- 28
2020-07-24 14:00:00 25.9 9 Oeste 18 Oeste 0 -- -- 40
2020-07-24 13:00:00 24.4 6 Nordeste 15 Norte 0 -- -- 42
2020-07-24 12:00:00 22.9 8 Noroeste 15 Noroeste 0 -- -- 50
2020-07-24 11:00:00 21.3 6 Norte 12 Nordeste 0 -- -- 53
2020-07-24 10:00:00 18.9 8 Norte 13 Norte 0 -- -- 70
2020-07-24 09:00:00 15.6 6 Norte 10 Norte 0 -- -- 81
2020-07-24 08:00:00 13 7 Nordeste 10 Nordeste 0 -- -- 86
2020-07-24 07:00:00 12.5 4 Norte 6 Norte 0 -- -- 86
2020-07-24 06:00:00 13.4 5 Norte 7 Norte 0 -- -- 83
2020-07-24 05:00:00 14.6 4 Noroeste 8 Norte 0 -- -- 80
2020-07-24 04:00:00 16.2 4 Norte 14 Este 0 -- -- 77
2020-07-24 03:00:00 17.3 4 Nordeste 20 Sudeste 0 -- -- 74
2020-07-24 02:00:00 18 15 Este 20 Este 0 -- -- 55
2020-07-24 01:00:00 18.6 11 Nordeste 15 Nordeste 0 -- -- 56
2020-07-24 00:00:00 20.2 15 Este 20 Nordeste 0 -- -- 50
2020-07-23 23:00:00 22 14 Nordeste 23 Norte 0 -- -- 45
2020-07-23 22:00:00 24.4 16 Norte 31 Nordeste 0 -- -- 42
2020-07-23 21:00:00 28 18 Noroeste 35 Noroeste 0 -- -- 29
2020-07-23 20:00:00 29.5 25 Noroeste 39 Noroeste 0 -- -- 25
2020-07-23 19:00:00 30.6 19 Noroeste 31 Noroeste 0 -- -- 31
2020-07-23 18:00:00 30.7 19 Noroeste 32 Noroeste 0 -- -- 28
2020-07-23 17:00:00 31.4 15 Oeste 25 Oeste 0 -- -- 32
2020-07-23 16:00:00 30.8 15 Oeste 26 Sudoeste 0 -- -- 32
2020-07-23 15:00:00 30.2 5 Noroeste 21 Oeste 0 -- -- 37
2020-07-23 14:00:00 29.2 13 Sudoeste 24 Oeste 0 -- -- 37
2020-07-23 13:00:00 27.8 7 Oeste 16 Sudoeste 0 -- -- 43
2020-07-23 12:00:00 26.3 5 Oeste 10 Sudoeste 0 -- -- 46
2020-07-23 11:00:00 23.7 5 Oeste 9 Noroeste 0 -- -- 54
2020-07-23 10:00:00 21.4 5 Norte 8 Norte 0 -- -- 67
2020-07-23 09:00:00 18.6 5 Norte 8 Norte 0 -- -- 78
2020-07-23 08:00:00 16.1 4 Norte 7 Noroeste 0 -- -- 86
2020-07-23 07:00:00 16.2 5 Norte 12 Este 0 -- -- 82
2020-07-23 06:00:00 17 12 Este 14 Nordeste 0 -- -- 78
2020-07-23 05:00:00 16.9 9 Nordeste 14 Norte 0 -- -- 83
2020-07-23 04:00:00 17.7 6 Norte 12 Nordeste 0 -- -- 81
2020-07-23 03:00:00 18.8 8 Norte 12 Nordeste 0 -- -- 75
2020-07-23 02:00:00 20.3 6 Nordeste 12 Norte 0 -- -- 66
2020-07-23 01:00:00 21.3 8 Nordeste 12 Este 0 -- -- 63
2020-07-23 00:00:00 21.3 7 Nordeste 17 Nordeste 0 -- -- 64
2020-07-22 23:00:00 22.2 13 Nordeste 17 Norte 0 -- -- 61
2020-07-22 22:00:00 23.3 13 Norte 17 Norte 0 -- -- 60
2020-07-22 21:00:00 25.8 13 Norte 22 Norte 0 -- -- 51
2020-07-22 20:00:00 27.9 18 Norte 29 Norte 0 -- -- 46
2020-07-22 19:00:00 28.5 21 Nordeste 32 Nordeste 0 -- -- 44
2020-07-22 18:00:00 29.1 17 Norte 35 Norte 0 -- -- 40
2020-07-22 17:00:00 31.2 13 Noroeste 23 Noroeste 0 -- -- 35
2020-07-22 16:00:00 30.5 9 Noroeste 21 Noroeste 0 -- -- 36
2020-07-22 15:00:00 29.3 11 Norte 21 Norte 0 -- -- 41
2020-07-22 14:00:00 28.5 9 Norte 24 Este 0 -- -- 40
2020-07-22 13:00:00 28.1 8 Noroeste 17 Norte 0 -- -- 43
2020-07-22 12:00:00 26.3 6 Nordeste 23 Sudeste 0 -- -- 44
2020-07-22 11:00:00 24.4 12 Este 24 Este 0 -- -- 53
2020-07-22 10:00:00 20.7 5 Nordeste 19 Norte 0 -- -- 70
2020-07-22 09:00:00 18.4 13 Norte 16 Norte 0 -- -- 79
2020-07-22 08:00:00 16.4 8 Norte 10 Norte 0 -- -- 86
2020-07-22 07:00:00 16.8 -- -- -- -- 0 -- -- 83
2020-07-22 06:00:00 16.5 2 Norte 7 Nordeste 0 -- -- 83
2020-07-22 05:00:00 16.6 7 Nordeste 16 Norte 0 -- -- 81
2020-07-22 04:00:00 16.7 6 Nordeste 9 Norte 0 -- -- 82
2020-07-22 03:00:00 16.8 7 Norte 13 Norte 0 -- -- 85
2020-07-22 02:00:00 17.2 8 Norte 13 Noroeste 0 -- -- 84
2020-07-22 01:00:00 18.1 11 Norte 24 Nordeste 0 -- -- 79
2020-07-22 00:00:00 19.2 19 Este 35 Nordeste 0 -- -- 73
2020-07-21 23:00:00 20 18 Sudeste 46 Este 0 -- -- 71
2020-07-21 22:00:00 20.2 34 Este 54 Sudeste 0 -- -- 70
2020-07-21 21:00:00 22.7 29 Nordeste 45 Nordeste 0 -- -- 60
2020-07-21 20:00:00 27.1 17 Este 41 Sur 0 -- -- 39
2020-07-21 19:00:00 27.4 15 Oeste 50 Sudoeste 0 -- -- 42
2020-07-21 18:00:00 29.4 12 Oeste 27 Sudoeste 0 -- -- 39
2020-07-21 17:00:00 30.8 19 Sudoeste 25 Sudoeste 0 -- -- 35
2020-07-21 16:00:00 31 9 Sudoeste 22 Sudoeste 0 -- -- 31
2020-07-21 15:00:00 30 17 Sudoeste 29 Oeste 0 -- -- 38
2020-07-21 14:00:00 29.1 3 Noroeste 19 Nordeste 0 -- -- 43
2020-07-21 13:00:00 27 10 Nordeste 22 Nordeste 0 -- -- 50
2020-07-21 12:00:00 24.2 17 Norte 24 Nordeste 0 -- -- 57
2020-07-21 11:00:00 22.2 12 Norte 26 Sudoeste 0 -- -- 63
2020-07-21 10:00:00 19.3 10 Oeste 30 Sudoeste 0 -- -- 71
2020-07-21 09:00:00 17.9 0 Calma 5 Noroeste 0 -- -- 79
2020-07-21 08:00:00 15.3 4 Norte 12 Nordeste 0 -- -- 87
2020-07-21 07:00:00 14.9 9 Nordeste 12 Norte 0 -- -- 86
2020-07-21 06:00:00 15.6 5 Norte 10 Norte 0 -- -- 86
2020-07-21 05:00:00 16.6 5 Norte 12 Nordeste 0 -- -- 82
2020-07-21 04:00:00 16.6 10 Nordeste 13 Nordeste 0 -- -- 82
2020-07-21 03:00:00 17.4 11 Nordeste 17 Nordeste 0 -- -- 78
2020-07-21 02:00:00 18.4 12 Nordeste 22 Este 0 -- -- 76
2020-07-21 01:00:00 20.8 15 Este 43 Este 0 -- -- 65
2020-07-21 00:00:00 22.5 33 Este 46 Este 0 -- -- 60
2020-07-20 23:00:00 25.5 28 Este 39 Este 0 -- -- 51
2020-07-20 22:00:00 28 10 Sudeste 12 Sudeste 0 -- -- 28
2020-07-20 21:00:00 31.5 5 Sur 12 Sur 0 -- -- 24
2020-07-20 20:00:00 32.4 8 Sur 13 Sur 0 -- -- 22
2020-07-20 19:00:00 32 6 Sur 16 Oeste 0 -- -- 25
2020-07-20 18:00:00 31.8 9 Noroeste 22 Oeste 0 -- -- 33
2020-07-20 17:00:00 31.8 10 Oeste 27 Sudoeste 0 -- -- 26
2020-07-20 16:00:00 31.2 15 Sudoeste 24 Sudoeste 0 -- -- 28
2020-07-20 15:00:00 30.4 9 Sudoeste 18 Oeste 0 -- -- 37
2020-07-20 14:00:00 28.5 6 Este 16 Sudeste 0 -- -- 36
2020-07-20 13:00:00 27.5 8 Sudeste 17 Sudeste 0 -- -- 40
2020-07-20 12:00:00 25.9 7 Sudeste 14 Este 0 -- -- 44
2020-07-20 11:00:00 24.2 6 Nordeste 21 Este 0 -- -- 47
2020-07-20 10:00:00 21.6 11 Nordeste 19 Nordeste 0 -- -- 57
2020-07-20 09:00:00 18.9 5 Norte 7 Norte 0 -- -- 75
2020-07-20 08:00:00 16.4 3 Norte 7 Norte 0 -- -- 83
2020-07-20 07:00:00 15.9 6 Norte 7 Norte 0 -- -- 83
2020-07-20 06:00:00 16.4 5 Nordeste 13 Nordeste 0 -- -- 80
2020-07-20 05:00:00 16.9 8 Nordeste 12 Este 0 -- -- 79
2020-07-20 04:00:00 18 6 Nordeste 10 Nordeste 0 -- -- 76
2020-07-20 03:00:00 18.8 5 Nordeste 9 Nordeste 0 -- -- 73
2020-07-20 02:00:00 19.2 8 Nordeste 16 Nordeste 0 -- -- 72
2020-07-20 01:00:00 20.8 12 Nordeste 18 Nordeste 0 -- -- 67
2020-07-20 00:00:00 22.8 13 Nordeste 30 Nordeste 0 -- -- 58
2020-07-19 23:00:00 24 22 Norte 31 Norte 0 -- -- 53
2020-07-19 22:00:00 27.3 15 Noroeste 22 Noroeste 0 -- -- 40
2020-07-19 21:00:00 32.5 7 Sudoeste 15 Sudoeste 0 -- -- 26
2020-07-19 20:00:00 33 6 Sur 15 Sur 0 -- -- 24
2020-07-19 19:00:00 33.2 8 Sur 15 Sudoeste 0 -- -- 25
2020-07-19 18:00:00 32.8 4 Sur 13 Oeste 0 -- -- 27
2020-07-19 17:00:00 32.9 8 Oeste 22 Oeste 0 -- -- 27
2020-07-19 16:00:00 32.8 18 Sudoeste 28 Sudoeste 0 -- -- 24
2020-07-19 15:00:00 31.6 19 Oeste 28 Oeste 0 -- -- 25
2020-07-19 14:00:00 31.2 8 Sudoeste 17 Oeste 0 -- -- 24
2020-07-19 13:00:00 29.4 6 Noroeste 13 Norte 0 -- -- 38
2020-07-19 12:00:00 27.9 5 Norte 9 Norte 0 -- -- 39
2020-07-19 11:00:00 24.8 4 Norte 10 Norte 0 -- -- 50
2020-07-19 10:00:00 21 8 Norte 13 Norte 0 -- -- 61
2020-07-19 09:00:00 17.4 3 Norte 12 Noroeste 0 -- -- 72
2020-07-19 08:00:00 14.6 4 Norte 11 Norte 0 -- -- 81
2020-07-19 07:00:00 13.7 7 Norte 11 Norte 0 -- -- 83
2020-07-19 06:00:00 14.8 6 Norte 9 Norte 0 -- -- 78
2020-07-19 05:00:00 15.2 5 Norte 13 Norte 0 -- -- 76
2020-07-19 04:00:00 15.3 9 Norte 12 Norte 0 -- -- 76
2020-07-19 03:00:00 17 8 Norte 14 Norte 0 -- -- 66
2020-07-19 02:00:00 20.4 11 Norte 27 Este 0 -- -- 50
2020-07-19 01:00:00 19.9 8 Nordeste 20 Sudeste 0 -- -- 53
2020-07-19 00:00:00 23.2 16 Sudeste 20 Sudeste 0 -- -- 30
2020-07-18 23:00:00 24.9 12 Sudeste 13 Sudeste 0 -- -- 29
2020-07-18 22:00:00 27.5 3 Sur 9 Sur 0 -- -- 27
2020-07-18 21:00:00 30.3 0 Calma 6 Oeste 0 -- -- 21
2020-07-18 20:00:00 31.2 2 Noroeste 11 Oeste 0 -- -- 32
2020-07-18 19:00:00 31.3 4 Noroeste 14 Sudoeste 0 -- -- 27
2020-07-18 18:00:00 30.7 9 Oeste 17 Sur 0 -- -- 25
2020-07-18 17:00:00 30.2 6 Oeste 15 Oeste 0 -- -- 30
2020-07-18 16:00:00 29.2 7 Oeste 16 Oeste 0 -- -- 31
2020-07-18 15:00:00 27.3 5 Noroeste 15 Oeste 0 -- -- 41
2020-07-18 14:00:00 25.5 7 Noroeste 15 Noroeste 0 -- -- 44
2020-07-18 13:00:00 23.5 7 Norte 22 Norte 0 -- -- 50
2020-07-18 12:00:00 21.8 11 Norte 18 Norte 0 -- -- 54
2020-07-18 11:00:00 19.6 11 Norte 18 Noroeste 0 -- -- 60
2020-07-18 10:00:00 17.7 8 Noroeste 22 Nordeste 0 -- -- 67
2020-07-18 09:00:00 15.4 14 Nordeste 19 Nordeste 0 -- -- 75
2020-07-18 08:00:00 13.1 4 Norte 9 Este 0 -- -- 80
2020-07-18 07:00:00 12.4 0 Calma 5 Este 0 -- -- 79
2020-07-18 06:00:00 12.7 0 Calma 5 Norte 0 -- -- 79
2020-07-18 05:00:00 12.8 4 Nordeste 6 Nordeste 0 -- -- 79
2020-07-18 04:00:00 13.6 5 Norte 8 Norte 0 -- -- 77
2020-07-18 03:00:00 14.4 6 Nordeste 14 Nordeste 0 -- -- 76
2020-07-18 02:00:00 15.4 8 Nordeste 22 Este 0 -- -- 72
2020-07-18 01:00:00 17 6 Nordeste 41 Este 0 -- -- 61
2020-07-18 00:00:00 18.4 28 Este 41 Sudeste 0 -- -- 51
2020-07-17 23:00:00 21 27 Este 39 Sudeste 0 -- -- 40
2020-07-17 22:00:00 23.5 26 Este 40 Este 0 -- -- 31
2020-07-17 21:00:00 26.5 27 Sudeste 44 Este 0 -- -- 25
2020-07-17 20:00:00 30.4 9 Sudoeste 18 Oeste 0 -- -- 21
2020-07-17 19:00:00 30.3 13 Sudoeste 25 Sur 0 -- -- 20
2020-07-17 18:00:00 30.5 12 Sur 22 Sudoeste 0 -- -- 22
2020-07-17 17:00:00 30.2 10 Sudoeste 21 Sudoeste 0 -- -- 22
2020-07-17 16:00:00 29 7 Oeste 22 Sudoeste 0 -- -- 27
2020-07-17 15:00:00 27.5 7 Noroeste 19 Oeste 0 -- -- 27
2020-07-17 14:00:00 26.6 6 Oeste 14 Sudoeste 0 -- -- 28
2020-07-17 13:00:00 24.6 6 Oeste 14 Noroeste 0 -- -- 35
2020-07-17 12:00:00 23.1 6 Noroeste 12 Noroeste 0 -- -- 40
2020-07-17 11:00:00 21.3 3 Noroeste 9 Nordeste 0 -- -- 46
2020-07-17 10:00:00 18.5 5 Norte 12 Nordeste 0 -- -- 54
2020-07-17 09:00:00 15.8 5 Norte 11 Nordeste 0 -- -- 70
2020-07-17 08:00:00 12.5 8 Nordeste 12 Norte 0 -- -- 73
2020-07-17 07:00:00 12.3 5 Nordeste 8 Nordeste 0 -- -- 63
2020-07-17 06:00:00 13.1 0 Calma -- -- 0 -- -- 70
2020-07-17 05:00:00 13.8 0 Calma 12 Este 0 -- -- 66
2020-07-17 04:00:00 14.8 0 Calma 10 Este 0 -- -- 55
2020-07-17 03:00:00 15 8 Este 23 Este 0 -- -- 59
2020-07-17 02:00:00 16.5 11 Este 26 Este 0 -- -- 51
2020-07-17 01:00:00 18.1 17 Este 26 Este 0 -- -- 47
2020-07-17 00:00:00 19.8 22 Este 35 Este 0 -- -- 41
2020-07-16 23:00:00 21.4 22 Este 38 Este 0 -- -- 35
2020-07-16 22:00:00 24 29 Este 39 Este 0 -- -- 34
2020-07-16 21:00:00 26.6 24 Este 36 Sudeste 0 -- -- 36
2020-07-16 20:00:00 29.2 6 Noroeste 13 Nordeste 0 -- -- 28
2020-07-16 19:00:00 28.7 6 Sudeste 17 Sudeste 0 -- -- 30
2020-07-16 18:00:00 28.6 2 Este 20 Este 0 -- -- 23
2020-07-16 17:00:00 28.8 3 Noroeste 22 Este 0 -- -- 27
2020-07-16 16:00:00 27.2 12 Nordeste 19 Nordeste 0 -- -- 24
2020-07-16 15:00:00 26.4 11 Nordeste 19 Nordeste 0 -- -- 28
2020-07-16 14:00:00 25.4 6 Este 22 Este 0 -- -- 28
2020-07-16 13:00:00 24.1 8 Sudeste 15 Sur 0 -- -- 31
2020-07-16 12:00:00 22.1 4 Noroeste 12 Norte 0 -- -- 50
2020-07-16 11:00:00 20.1 6 Norte 12 Norte 0 -- -- 51
2020-07-16 10:00:00 18 5 Nordeste 10 Nordeste 0 -- -- 56
2020-07-16 09:00:00 14.7 8 Nordeste 13 Nordeste 0 -- -- 70
2020-07-16 08:00:00 12.6 8 Nordeste 14 Nordeste 0 -- -- 80
2020-07-16 07:00:00 11.7 8 Nordeste 10 Norte 0 -- -- 79
2020-07-16 06:00:00 12.6 5 Nordeste 7 Nordeste 0 -- -- 73
2020-07-16 05:00:00 13.4 3 Nordeste 9 Norte 0 -- -- 68
2020-07-16 04:00:00 13.8 5 Nordeste 18 Nordeste 0 -- -- 62
2020-07-16 03:00:00 15 14 Este 31 Este 0 -- -- 53
2020-07-16 02:00:00 16.2 22 Este 37 Este 0 -- -- 44
2020-07-16 01:00:00 17 25 Este 35 Este 0 -- -- 46
2020-07-16 00:00:00 18.1 26 Este 40 Este 0 -- -- 43
2020-07-15 23:00:00 19.7 27 Este 41 Este 0 -- -- 43
2020-07-15 22:00:00 21.9 28 Este 38 Este 0 -- -- 43
2020-07-15 21:00:00 24.6 25 Este 34 Este 0 -- -- 41
2020-07-15 20:00:00 26.7 14 Sudeste 29 Sudeste 0 -- -- 38
2020-07-15 19:00:00 28 12 Sur 22 Sudoeste 0 -- -- 35
2020-07-15 18:00:00 27.8 12 Oeste 21 Oeste 0 -- -- 33
2020-07-15 17:00:00 27 6 Nordeste 18 Este 0 -- -- 36
2020-07-15 16:00:00 26.6 7 Oeste 23 Oeste 0 -- -- 34
2020-07-15 15:00:00 25.3 6 Norte 18 Oeste 0 -- -- 43
2020-07-15 14:00:00 23.7 6 Noroeste 20 Sudoeste 0 -- -- 41
2020-07-15 13:00:00 22.9 6 Norte 15 Noroeste 0 -- -- 43
2020-07-15 12:00:00 20.9 9 Nordeste 15 Nordeste 0 -- -- 47
2020-07-15 11:00:00 19.1 6 Norte 17 Nordeste 0 -- -- 56
2020-07-15 10:00:00 17.4 9 Norte 19 Nordeste 0 -- -- 60
2020-07-15 09:00:00 14.8 13 Nordeste 19 Nordeste 0 -- -- 68
2020-07-15 08:00:00 11.5 12 Nordeste 18 Nordeste 0 -- -- 78
2020-07-15 07:00:00 10.3 10 Nordeste 15 Este 0 -- -- 80
2020-07-15 06:00:00 10.6 12 Este 18 Este 0 -- -- 77
2020-07-15 05:00:00 11.2 10 Este 13 Este 0 -- -- 81
2020-07-15 04:00:00 11.9 10 Este 15 Este 0 -- -- 79
2020-07-15 03:00:00 12.9 13 Nordeste 19 Nordeste 0 -- -- 73
2020-07-15 02:00:00 13.4 13 Este 19 Nordeste 0 -- -- 71
2020-07-15 01:00:00 14.3 14 Nordeste 23 Nordeste 0 -- -- 66
2020-07-15 00:00:00 15.7 18 Nordeste 26 Este 0 -- -- 61
2020-07-14 23:00:00 17.2 17 Este 35 Este 0 -- -- 50
2020-07-14 22:00:00 19.2 29 Este 42 Este 0 -- -- 40
2020-07-14 21:00:00 21.2 29 Este 44 Este 0 -- -- 50
2020-07-14 20:00:00 24.5 13 Norte 32 Norte 0 -- -- 43
2020-07-14 19:00:00 27.4 3 Nordeste 21 Sudeste 0 -- -- 27
2020-07-14 18:00:00 26.9 5 Este 16 Nordeste 0 -- -- 29
2020-07-14 17:00:00 26.8 8 Norte 17 Norte 0 -- -- 27
2020-07-14 16:00:00 26.4 10 Norte 23 Oeste 0 -- -- 36
2020-07-14 15:00:00 25.3 11 Norte 18 Norte 0 -- -- 34
2020-07-14 14:00:00 24.3 8 Norte 22 Oeste 0 -- -- 37
2020-07-14 13:00:00 23 4 Nordeste 15 Norte 0 -- -- 32
2020-07-14 12:00:00 21.7 5 Nordeste 14 Norte 0 -- -- 35
2020-07-14 11:00:00 20.5 6 Norte 15 Norte 0 -- -- 41
2020-07-14 10:00:00 18.6 7 Nordeste 17 Este 0 -- -- 45
2020-07-14 09:00:00 15.7 10 Este 17 Este 0 -- -- 58
2020-07-14 08:00:00 13.6 6 Este 11 Este 0 -- -- 72
2020-07-14 07:00:00 12.7 0 Calma 6 Nordeste 0 -- -- 78
2020-07-14 06:00:00 13 4 Este 15 Este 0 -- -- 73
2020-07-14 05:00:00 13.6 7 Norte 25 Sudeste 0 -- -- 68
2020-07-14 04:00:00 13.6 12 Este 17 Este 0 -- -- 70
2020-07-14 03:00:00 14.2 9 Este 14 Este 0 -- -- 68
2020-07-14 02:00:00 14.6 5 Nordeste 18 Este 0 -- -- 68
2020-07-14 01:00:00 16 12 Este 23 Este 0 -- -- 61
2020-07-14 00:00:00 17.6 19 Este 32 Este 0 -- -- 53
2020-07-13 23:00:00 19.7 26 Este 42 Este 0 -- -- 37
2020-07-13 22:00:00 21.8 27 Este 39 Este 0 -- -- 40
2020-07-13 21:00:00 24.7 27 Este 35 Este 0 -- -- 39
2020-07-13 20:00:00 27 14 Sudeste 21 Este 0 -- -- 39
2020-07-13 19:00:00 27.8 5 Sur 30 Nordeste 0 -- -- 35
2020-07-13 18:00:00 27.7 3 Sudeste 21 Nordeste 0 -- -- 37
2020-07-13 17:00:00 27.1 8 Nordeste 24 Nordeste 0 -- -- 38
2020-07-13 16:00:00 26.1 13 Nordeste 25 Nordeste 0 -- -- 45
2020-07-13 15:00:00 25.6 9 Nordeste -- -- -- -- -- 43
2020-07-13 14:00:00 -- -- -- -- -- -- -- -- --
2020-07-13 13:00:00 -- -- -- -- -- -- -- -- --
2020-07-13 12:00:00 -- -- -- -- -- -- -- -- --
2020-07-13 11:00:00 -- -- -- -- -- -- -- -- --
2020-07-13 10:00:00 -- -- -- -- -- -- -- -- --
2020-07-13 09:00:00 -- -- -- -- -- -- -- -- --
2020-07-13 08:00:00 -- -- -- -- -- -- -- -- --
2020-07-13 07:00:00 -- -- -- -- -- -- -- -- --
2020-07-13 06:00:00 -- -- -- -- -- -- -- -- --
2020-07-13 05:00:00 -- -- -- -- -- -- -- -- --
2020-07-13 04:00:00 -- -- -- -- -- -- -- -- --
2020-07-13 03:00:00 -- -- -- -- -- -- -- -- --
2020-07-13 02:00:00 -- -- -- -- -- -- -- -- --
2020-07-13 01:00:00 -- -- -- -- -- -- -- -- --
2020-07-13 00:00:00 -- -- -- -- -- -- -- -- --
2020-07-12 23:00:00 -- -- -- -- -- -- -- -- --
2020-07-12 22:00:00 -- -- -- -- -- -- -- -- --
2020-07-12 21:00:00 -- -- -- -- -- -- -- -- --
2020-07-12 20:00:00 -- -- -- -- -- -- -- -- --
2020-07-12 19:00:00 -- -- -- -- -- -- -- -- --
2020-07-12 18:00:00 -- -- -- -- -- -- -- -- --
2020-07-12 17:00:00 -- -- -- -- -- -- -- -- --
2020-07-12 16:00:00 -- -- -- -- -- -- -- -- --
2020-07-12 15:00:00 -- -- -- -- -- -- -- -- --
2020-07-12 14:00:00 -- -- -- -- -- -- -- -- --
2020-07-12 13:00:00 -- -- -- -- -- -- -- -- --
2020-07-12 12:00:00 -- -- -- -- -- -- -- -- --
2020-07-12 11:00:00 -- -- -- -- -- -- -- -- --
2020-07-12 10:00:00 -- -- -- -- -- -- -- -- --
2020-07-12 09:00:00 -- -- -- -- -- -- -- -- --
2020-07-12 08:00:00 -- -- -- -- -- -- -- -- --
2020-07-12 07:00:00 -- -- -- -- -- -- -- -- --
2020-07-12 06:00:00 -- -- -- -- -- -- -- -- --
2020-07-12 05:00:00 -- -- -- -- -- -- -- -- --
2020-07-12 04:00:00 -- -- -- -- -- -- -- -- --
2020-07-12 03:00:00 -- -- -- -- -- -- -- -- --
2020-07-12 02:00:00 -- -- -- -- -- -- -- -- --
2020-07-12 01:00:00 -- -- -- -- -- -- -- -- --
2020-07-12 00:00:00 -- -- -- -- -- -- -- -- --
2020-07-11 23:00:00 -- -- -- -- -- -- -- -- --
2020-07-11 22:00:00 -- -- -- -- -- -- -- -- --
2020-07-11 21:00:00 -- -- -- -- -- -- -- -- --
2020-07-11 20:00:00 -- -- -- -- -- -- -- -- --
2020-07-11 19:00:00 -- -- -- -- -- -- -- -- --
2020-07-11 18:00:00 -- -- -- -- -- -- -- -- --
2020-07-11 17:00:00 -- -- -- -- -- -- -- -- --
2020-07-11 16:00:00 -- -- -- -- -- -- -- -- --
2020-07-11 15:00:00 -- -- -- -- -- -- -- -- --
2020-07-11 14:00:00 -- -- -- -- -- -- -- -- --
2020-07-11 13:00:00 -- -- -- -- -- -- -- -- --
2020-07-11 12:00:00 -- -- -- -- -- -- -- -- --
2020-07-11 11:00:00 -- -- -- -- -- -- -- -- --
2020-07-11 10:00:00 -- -- -- -- -- -- -- -- --
2020-07-11 09:00:00 -- -- -- -- -- -- -- -- --
2020-07-11 08:00:00 -- -- -- -- -- -- -- -- --
2020-07-11 07:00:00 -- -- -- -- -- -- -- -- --
2020-07-11 06:00:00 -- -- -- -- -- -- -- -- --
2020-07-11 05:00:00 -- -- -- -- -- -- -- -- --
2020-07-11 04:00:00 -- -- -- -- -- -- -- -- --
2020-07-11 03:00:00 -- -- -- -- -- -- -- -- --
2020-07-11 02:00:00 -- -- -- -- -- -- -- -- --
2020-07-11 01:00:00 -- -- -- -- -- -- -- -- --
2020-07-11 00:00:00 -- -- -- -- -- -- -- -- --
2020-07-10 23:00:00 -- -- -- -- -- -- -- -- --
2020-07-10 22:00:00 -- -- -- -- -- -- -- -- --
2020-07-10 21:00:00 -- -- -- -- -- -- -- -- --
2020-07-10 20:00:00 -- -- -- -- -- -- -- -- --
2020-07-10 19:00:00 -- -- -- -- -- -- -- -- --
2020-07-10 18:00:00 -- -- -- -- -- -- -- -- --
2020-07-10 17:00:00 -- -- -- -- -- -- -- -- --
2020-07-10 16:00:00 -- -- -- -- -- -- -- -- --
2020-07-10 15:00:00 -- -- -- -- -- -- -- -- --
2020-07-10 14:00:00 -- -- -- -- -- -- -- -- --
2020-07-10 13:00:00 -- -- -- -- -- -- -- -- --
2020-07-10 12:00:00 -- -- -- -- -- -- -- -- --
2020-07-10 11:00:00 -- -- -- -- -- -- -- -- --
2020-07-10 10:00:00 -- -- -- -- -- -- -- -- --
2020-07-10 09:00:00 -- -- -- -- -- -- -- -- --
2020-07-10 08:00:00 -- -- -- -- -- -- -- -- --
2020-07-10 07:00:00 -- -- -- -- -- -- -- -- --
2020-07-10 06:00:00 -- -- -- -- -- -- -- -- --
2020-07-10 05:00:00 -- -- -- -- -- -- -- -- --
2020-07-10 04:00:00 -- -- -- -- -- -- -- -- --
2020-07-10 03:00:00 -- -- -- -- -- -- -- -- --
2020-07-10 02:00:00 -- -- -- -- -- -- -- -- --
2020-07-10 01:00:00 -- -- -- -- -- -- -- -- --
2020-07-10 00:00:00 -- -- -- -- -- -- -- -- --
2020-07-09 23:00:00 -- -- -- -- -- -- -- -- --
2020-07-09 22:00:00 -- -- -- -- -- -- -- -- --
2020-07-09 21:00:00 -- -- -- -- -- -- -- -- --
2020-07-09 20:00:00 -- -- -- -- -- -- -- -- --
2020-07-09 19:00:00 -- -- -- -- -- -- -- -- --
2020-07-09 18:00:00 -- -- -- -- -- -- -- -- --
2020-07-09 17:00:00 -- -- -- -- -- -- -- -- --
2020-07-09 16:00:00 -- -- -- -- -- -- -- -- --
2020-07-09 15:00:00 -- -- -- -- -- -- -- -- --
2020-07-09 14:00:00 -- -- -- -- -- -- -- -- --
2020-07-09 13:00:00 -- -- -- -- -- -- -- -- --
2020-07-09 12:00:00 -- -- -- -- -- -- -- -- --
2020-07-09 11:00:00 -- -- -- -- -- -- -- -- --
2020-07-09 10:00:00 -- -- -- -- -- -- -- -- --
2020-07-09 09:00:00 -- -- -- -- -- -- -- -- --
2020-07-09 08:00:00 -- -- -- -- -- -- -- -- --
2020-07-09 07:00:00 -- -- -- -- -- -- -- -- --
2020-07-09 06:00:00 -- -- -- -- -- -- -- -- --
2020-07-09 05:00:00 -- -- -- -- -- -- -- -- --
2020-07-09 04:00:00 -- -- -- -- -- -- -- -- --
2020-07-09 03:00:00 -- -- -- -- -- -- -- -- --
2020-07-09 02:00:00 -- -- -- -- -- -- -- -- --
2020-07-09 01:00:00 -- -- -- -- -- -- -- -- --
2020-07-09 00:00:00 -- -- -- -- -- -- -- -- --
2020-07-08 23:00:00 -- -- -- -- -- -- -- -- --
2020-07-08 22:00:00 -- -- -- -- -- -- -- -- --
2020-07-08 21:00:00 -- -- -- -- -- -- -- -- --
2020-07-08 20:00:00 19.7 31 Oeste 49 Oeste 3 -- -- 65
2020-07-08 19:00:00 25 30 Noroeste 57 Noroeste 0 -- -- 38
2020-07-08 18:00:00 28.5 5 Norte 41 Este 0 -- -- 33
2020-07-08 17:00:00 31.3 26 Este 44 Sudeste 0 -- -- 23
2020-07-08 16:00:00 32.7 22 Sudeste 34 Este 0 -- -- 23
2020-07-08 15:00:00 32 22 Sudeste 41 Sudeste 0 -- -- 25
2020-07-08 14:00:00 30.5 18 Sudeste 31 Sudeste 0 -- -- 26
2020-07-08 13:00:00 28.9 18 Este 29 Este 0 -- -- 31
2020-07-08 12:00:00 26.6 17 Este 27 Sudeste 0 -- -- 34
2020-07-08 11:00:00 24.7 18 Este 27 Este 0 -- -- 36
2020-07-08 10:00:00 20.6 4 Noroeste 13 Noroeste 0 -- -- 58
2020-07-08 09:00:00 16.5 6 Noroeste 15 Norte 0 -- -- 72
2020-07-08 08:00:00 15.2 13 Norte 16 Norte 0 -- -- 76
2020-07-08 07:00:00 14.4 9 Norte 13 Nordeste 0 -- -- 81
2020-07-08 06:00:00 15.1 6 Norte 13 Norte 0 -- -- 80
2020-07-08 05:00:00 15.6 11 Norte 17 Norte 0 -- -- 79
2020-07-08 04:00:00 17 7 Nordeste 23 Este 0 -- -- 70
2020-07-08 03:00:00 19.7 16 Nordeste 24 Nordeste 0 -- -- 54
2020-07-08 02:00:00 20.6 29 Este 44 Este 0 -- -- 51
2020-07-08 01:00:00 22.1 33 Este 44 Este 0 -- -- 45
2020-07-08 00:00:00 22.3 31 Este 43 Este 0 -- -- 48